createdAt,value
2022-10-04T00:02:09.923Z,9.07
2022-10-04T00:07:14.843Z,6.93
2022-10-04T00:12:19.766Z,7.85
2022-10-04T00:17:21.801Z,9.02
2022-10-04T00:22:18.296Z,7.00
2022-10-04T00:27:21.591Z,7.18
2022-10-04T00:37:15.384Z,7.60
2022-10-04T00:42:36.692Z,9.93
2022-10-04T00:47:56.764Z,7.50
2022-10-04T00:52:53.537Z,7.20
2022-10-04T00:57:48.724Z,7.35
2022-10-04T01:02:46.642Z,6.47
2022-10-04T01:07:46.101Z,7.65
2022-10-04T01:13:07.171Z,7.70
2022-10-04T01:18:21.913Z,6.03
2022-10-04T01:23:32.090Z,6.57
2022-10-04T01:28:26.981Z,5.60
2022-10-04T01:33:21.184Z,7.10
2022-10-04T01:38:14.550Z,8.63
2022-10-04T01:48:02.359Z,5.82
2022-10-04T01:53:02.335Z,5.90
2022-10-04T01:58:04.219Z,5.90
2022-10-04T02:03:22.152Z,5.90
2022-10-04T02:08:17.161Z,5.40
2022-10-04T02:13:12.251Z,7.70
2022-10-04T02:18:18.964Z,5.22
2022-10-04T02:23:13.780Z,7.82
2022-10-04T02:28:11.352Z,7.45
2022-10-04T02:33:04.566Z,5.95
2022-10-04T02:38:24.050Z,5.20
2022-10-04T02:43:22.295Z,5.20
2022-10-04T02:48:18.584Z,5.70
2022-10-04T02:53:27.606Z,5.13
2022-10-04T02:58:24.664Z,5.28
2022-10-04T03:03:25.502Z,5.97
2022-10-04T03:08:19.322Z,6.25
2022-10-04T03:13:52.296Z,5.25
2022-10-04T03:18:46.609Z,15.15
2022-10-04T03:24:01.574Z,5.45
2022-10-04T03:28:54.348Z,7.20
2022-10-04T03:34:07.865Z,6.55
2022-10-04T03:39:01.932Z,6.18
2022-10-04T03:43:56.000Z,4.15
2022-10-04T03:48:54.655Z,5.47
2022-10-04T03:53:50.112Z,7.15
2022-10-04T03:58:44.249Z,5.22
2022-10-04T04:03:48.058Z,5.13
2022-10-04T04:08:45.524Z,5.13
2022-10-04T04:13:41.783Z,4.53
2022-10-04T04:18:36.694Z,5.45
2022-10-04T04:23:51.893Z,4.72
2022-10-04T04:29:19.416Z,6.18
2022-10-04T04:34:26.874Z,6.07
2022-10-04T04:39:46.142Z,7.68
2022-10-04T04:45:05.027Z,4.88
2022-10-04T04:50:04.568Z,5.47
2022-10-04T04:54:59.667Z,8.15
2022-10-04T04:59:58.967Z,6.43
2022-10-04T05:05:14.613Z,5.18
2022-10-04T05:10:34.273Z,6.40
2022-10-04T05:15:33.017Z,5.32
2022-10-04T05:20:28.215Z,6.65
2022-10-04T05:25:32.793Z,9.25
2022-10-04T05:30:35.069Z,7.63
2022-10-04T05:35:29.684Z,8.48
2022-10-04T05:40:38.230Z,11.68
2022-10-04T05:45:33.555Z,13.90
2022-10-04T05:50:41.089Z,14.10
2022-10-04T05:55:53.591Z,17.67
2022-10-04T06:01:02.445Z,18.25
2022-10-04T06:06:01.658Z,20.17
2022-10-04T06:11:32.404Z,25.00
2022-10-04T06:16:35.519Z,31.38
2022-10-04T06:21:29.180Z,25.02
2022-10-04T06:26:44.553Z,17.17
2022-10-04T06:32:05.556Z,17.50
2022-10-04T06:37:20.925Z,15.82
2022-10-04T06:42:40.221Z,16.45
2022-10-04T06:47:48.584Z,19.58
2022-10-04T06:52:59.989Z,18.17
2022-10-04T06:58:17.511Z,16.70
2022-10-04T07:03:36.990Z,19.73
2022-10-04T07:08:48.733Z,18.70
2022-10-04T07:14:05.188Z,21.92
2022-10-04T07:19:25.721Z,20.95
2022-10-04T07:24:40.951Z,22.48
2022-10-04T07:29:41.977Z,20.45
2022-10-04T07:34:57.077Z,16.75
2022-10-04T07:39:56.020Z,25.38
2022-10-04T07:45:17.400Z,20.60
2022-10-04T07:50:58.644Z,20.17
2022-10-04T07:56:43.650Z,24.85
2022-10-04T08:02:07.804Z,23.15
2022-10-04T08:07:18.393Z,22.20
2022-10-04T08:12:26.811Z,25.15
2022-10-04T08:17:42.515Z,22.77
2022-10-04T08:23:02.332Z,28.85
2022-10-04T08:28:36.000Z,27.08
2022-10-04T08:34:07.643Z,26.17
2022-10-04T08:39:17.407Z,29.95
2022-10-04T08:44:24.577Z,30.15
2022-10-04T08:49:39.699Z,29.13
2022-10-04T08:54:45.047Z,28.90
2022-10-04T09:00:14.241Z,27.45
2022-10-04T09:05:27.400Z,24.05
2022-10-04T09:10:58.624Z,25.17
2022-10-04T09:15:57.169Z,28.42
2022-10-04T09:20:59.862Z,24.10
2022-10-04T09:26:11.029Z,29.05
2022-10-04T09:31:04.964Z,26.27
2022-10-04T09:36:27.606Z,30.92
2022-10-04T09:46:35.644Z,22.75
2022-10-04T09:51:46.008Z,22.50
2022-10-04T09:57:12.410Z,23.83
2022-10-04T10:02:16.762Z,21.98
2022-10-04T10:07:13.238Z,24.27
2022-10-04T10:17:57.714Z,27.67
2022-10-04T10:23:13.462Z,24.77
2022-10-04T10:28:39.661Z,26.85
2022-10-04T10:33:38.517Z,23.83
2022-10-04T10:39:01.331Z,22.63
2022-10-04T10:44:09.523Z,23.60
2022-10-04T10:49:05.111Z,25.23
2022-10-04T10:54:07.256Z,23.10
2022-10-04T10:59:37.985Z,22.15
2022-10-04T11:04:58.327Z,18.73
2022-10-04T11:10:27.486Z,22.35
2022-10-04T11:15:58.566Z,21.38
2022-10-04T11:21:28.609Z,18.00
2022-10-04T11:26:47.435Z,20.77
2022-10-04T11:32:02.462Z,21.25
2022-10-04T11:37:15.004Z,20.35
2022-10-04T11:42:26.772Z,25.27
2022-10-04T11:47:26.169Z,19.35
2022-10-04T11:52:57.683Z,21.33
2022-10-04T11:57:56.404Z,18.17
2022-10-04T12:03:19.540Z,20.58
2022-10-04T12:08:30.731Z,18.08
2022-10-04T12:13:29.915Z,16.10
2022-10-04T12:18:33.487Z,20.02
2022-10-04T12:24:05.140Z,20.27
2022-10-04T12:34:18.742Z,19.60
2022-10-04T12:39:42.737Z,16.02
2022-10-04T12:44:58.452Z,17.60
2022-10-04T12:50:10.334Z,16.02
2022-10-04T12:55:19.019Z,19.65
2022-10-04T13:00:22.919Z,14.40
2022-10-04T13:05:41.829Z,14.18
2022-10-04T13:11:08.020Z,13.55
2022-10-04T13:21:42.142Z,14.13
2022-10-04T13:27:06.658Z,17.70
2022-10-04T13:32:23.709Z,11.85
2022-10-04T13:37:42.324Z,13.32
2022-10-04T13:43:09.054Z,13.73
2022-10-04T13:48:28.407Z,13.48
2022-10-04T13:54:17.396Z,10.65
2022-10-04T13:59:34.532Z,11.80
2022-10-04T14:04:36.854Z,11.20
2022-10-04T14:09:45.506Z,12.73
2022-10-04T14:15:04.415Z,12.15
2022-10-04T14:20:27.869Z,11.90
2022-10-04T14:26:04.316Z,18.00
2022-10-04T14:31:31.143Z,13.50
2022-10-04T14:36:57.240Z,11.68
2022-10-04T14:42:10.008Z,12.30
2022-10-04T14:47:28.516Z,15.32
2022-10-04T14:52:45.560Z,9.43
2022-10-04T14:57:44.437Z,9.98
2022-10-04T15:02:59.519Z,10.30
2022-10-04T15:08:23.859Z,8.50
2022-10-04T15:13:25.815Z,11.75
2022-10-04T15:18:33.942Z,10.17
2022-10-04T15:23:43.717Z,9.95
2022-10-04T15:28:52.513Z,12.02
2022-10-04T15:34:01.429Z,11.52
2022-10-04T15:39:05.756Z,10.88
2022-10-04T15:44:12.268Z,8.85
2022-10-04T15:49:37.312Z,11.50
2022-10-04T15:55:12.254Z,11.07
2022-10-04T16:00:13.902Z,11.75
2022-10-04T16:05:23.328Z,12.07
2022-10-04T16:10:53.560Z,8.25
2022-10-04T16:15:49.969Z,9.50
2022-10-04T16:21:01.468Z,10.70
2022-10-04T16:25:58.660Z,11.38
2022-10-04T16:31:20.393Z,8.70
2022-10-04T16:36:23.636Z,8.27
2022-10-04T16:41:32.148Z,7.90
2022-10-04T16:46:38.202Z,8.35
2022-10-04T16:51:38.644Z,9.77
2022-10-04T16:56:38.031Z,9.25
2022-10-04T17:02:11.272Z,10.27
2022-10-04T17:07:14.870Z,10.40
2022-10-04T17:14:56.675Z,21.88
2022-10-04T17:19:57.921Z,24.83
2022-10-04T17:24:58.399Z,21.67
2022-10-04T17:30:04.554Z,24.13
2022-10-04T17:35:26.268Z,23.13
2022-10-04T17:40:42.503Z,21.50
2022-10-04T17:46:01.396Z,22.38
2022-10-04T17:51:47.630Z,25.65
2022-10-04T17:56:55.547Z,25.05
2022-10-04T18:01:55.935Z,29.48
2022-10-04T18:07:04.984Z,27.42
2022-10-04T18:12:13.876Z,23.52
2022-10-04T18:17:11.350Z,28.25
2022-10-04T18:22:17.017Z,24.05
2022-10-04T18:27:32.506Z,20.55
2022-10-04T18:32:28.955Z,24.27
2022-10-04T18:37:41.168Z,19.15
2022-10-04T18:42:43.352Z,21.35
2022-10-04T18:47:40.767Z,23.63
2022-10-04T18:53:02.486Z,33.90
2022-10-04T18:58:23.572Z,35.22
2022-10-04T19:03:22.566Z,27.95
2022-10-04T19:08:38.390Z,27.77
2022-10-04T19:13:56.385Z,31.15
2022-10-04T19:19:37.100Z,26.88
2022-10-04T19:24:49.492Z,27.65
2022-10-04T19:30:04.192Z,26.65
2022-10-04T19:35:09.979Z,27.45
2022-10-04T19:40:25.654Z,26.77
2022-10-04T19:45:38.423Z,27.20
2022-10-04T19:50:43.949Z,23.98
2022-10-04T19:55:56.060Z,29.98
2022-10-04T20:06:01.828Z,24.65
2022-10-04T20:11:19.010Z,25.17
2022-10-04T20:16:15.340Z,31.52
2022-10-04T20:21:19.401Z,32.85
2022-10-04T20:26:55.374Z,27.25
2022-10-04T20:31:58.078Z,33.83
2022-10-04T20:36:54.097Z,39.92
2022-10-04T20:42:22.091Z,35.60
2022-10-04T20:47:24.781Z,34.70
2022-10-04T20:52:18.600Z,31.58
2022-10-04T20:57:14.360Z,29.05
2022-10-04T21:02:12.071Z,30.73
2022-10-04T21:07:07.741Z,27.65
2022-10-04T21:12:04.307Z,30.13
2022-10-04T21:17:03.087Z,35.65
2022-10-04T21:21:57.839Z,41.83
2022-10-04T21:26:59.543Z,40.13
2022-10-04T21:31:53.913Z,36.05
2022-10-04T21:36:47.895Z,37.78
2022-10-04T21:41:41.871Z,38.33
2022-10-04T21:46:35.050Z,37.75
2022-10-04T21:56:22.526Z,36.92
2022-10-04T22:01:16.545Z,39.20
2022-10-04T22:06:18.216Z,36.50
2022-10-04T22:11:18.972Z,37.75
2022-10-04T22:16:17.907Z,35.92
2022-10-04T22:21:12.792Z,35.78
2022-10-04T22:26:16.512Z,39.70
2022-10-04T22:31:21.336Z,34.55
2022-10-04T22:36:40.315Z,38.17
2022-10-04T22:41:55.481Z,36.67
2022-10-04T22:46:51.957Z,43.22
2022-10-04T22:51:49.619Z,43.83
2022-10-04T22:56:43.804Z,43.00
2022-10-04T23:01:38.134Z,41.95
2022-10-04T23:06:31.792Z,42.08
2022-10-04T23:16:21.406Z,39.22
2022-10-04T23:21:25.684Z,41.28
2022-10-04T23:26:28.024Z,39.63
2022-10-04T23:31:26.392Z,40.15
2022-10-04T23:36:23.416Z,39.97
2022-10-04T23:41:17.820Z,40.25
2022-10-04T23:46:20.654Z,38.85
2022-10-04T23:51:17.498Z,38.17
2022-10-04T23:56:24.231Z,39.90
